Aviation Digital Data Service (ADDS)

Output produced by METARs form (1408 UTC 30 July 2015)
found at http://www.aviationweather.gov/adds/metars/
 
KSAV 301353Z 35003KT 10SM BKN130 BKN250 31/21 A2996 RMK AO2 SLP143 T03110211